createdAt,value
2018-09-08T00:01:21.867Z,101061.41
2018-09-08T00:03:50.037Z,101057.13
2018-09-08T00:06:23.525Z,101059.81
2018-09-08T00:08:51.721Z,101061.83
2018-09-08T00:11:19.873Z,101059.42
2018-09-08T00:13:48.050Z,101065.50
2018-09-08T00:16:21.709Z,101064.65
2018-09-08T00:18:55.145Z,101056.50
2018-09-08T00:21:28.625Z,101055.22
2018-09-08T00:24:02.006Z,101056.00
2018-09-08T00:26:33.212Z,101062.21
2018-09-08T00:29:06.359Z,101064.83
2018-09-08T00:31:34.504Z,101064.05
2018-09-08T00:34:02.676Z,101058.07
2018-09-08T00:36:30.830Z,101068.30
2018-09-08T00:38:58.986Z,101069.30
2018-09-08T00:41:27.147Z,101064.24
2018-09-08T00:43:55.304Z,101061.45
2018-09-08T00:46:23.496Z,101065.94
2018-09-08T00:48:51.655Z,101076.92
2018-09-08T00:51:19.822Z,101074.45
2018-09-08T00:53:48.000Z,101078.31
2018-09-08T00:56:16.148Z,101081.38
2018-09-08T00:58:49.548Z,101074.39
2018-09-08T01:01:17.704Z,101077.78
2018-09-08T01:03:45.887Z,101083.39
2018-09-08T01:06:14.060Z,101083.08
2018-09-08T01:08:42.204Z,101079.39
2018-09-08T01:11:10.345Z,101081.64
2018-09-08T01:13:38.456Z,101084.23
2018-09-08T01:16:06.799Z,101078.70
2018-09-08T01:18:36.808Z,101082.94
2018-09-08T01:21:06.541Z,101079.31
2018-09-08T01:23:34.679Z,101074.92
2018-09-08T01:26:03.213Z,101076.92
2018-09-08T01:28:31.353Z,101069.86
2018-09-08T01:30:59.474Z,101075.78
2018-09-08T01:33:27.797Z,101074.71
2018-09-08T01:35:56.644Z,101078.55
2018-09-08T01:38:24.950Z,101072.88
2018-09-08T01:40:53.091Z,101071.17
2018-09-08T01:43:21.220Z,101067.32
2018-09-08T01:45:49.493Z,101070.66
2018-09-08T01:48:17.650Z,101071.43
2018-09-08T01:50:45.785Z,101068.60
2018-09-08T01:53:13.918Z,101066.13
2018-09-08T01:55:42.093Z,101068.38
2018-09-08T01:58:10.226Z,101067.83
2018-09-08T02:00:38.378Z,101059.14
2018-09-08T02:03:12.908Z,101068.60
2018-09-08T02:05:41.055Z,101059.59
2018-09-08T02:08:09.205Z,101058.12
2018-09-08T02:10:37.335Z,101059.49
2018-09-08T02:13:05.489Z,101061.02
2018-09-08T02:15:33.642Z,101054.16
2018-09-08T02:18:01.797Z,101057.52
2018-09-08T02:20:29.942Z,101072.55
2018-09-08T02:22:58.078Z,101069.62
2018-09-08T02:25:26.243Z,101084.44
2018-09-08T02:27:54.374Z,101073.00
2018-09-08T02:30:22.510Z,101074.19
2018-09-08T02:32:50.745Z,101072.30
2018-09-08T02:35:18.916Z,101074.16
2018-09-08T02:37:47.000Z,101073.94
2018-09-08T02:40:15.149Z,101076.66
2018-09-08T02:42:43.257Z,101078.53
2018-09-08T02:45:11.429Z,101072.25
2018-09-08T02:47:39.574Z,101071.11
2018-09-08T02:50:19.114Z,101071.15
2018-09-08T02:52:46.233Z,101068.15
2018-09-08T02:55:13.356Z,101074.16
2018-09-08T02:57:40.477Z,101080.65
2018-09-08T03:00:07.584Z,101075.25
2018-09-08T03:02:34.714Z,101080.40
2018-09-08T03:05:01.841Z,101079.13
2018-09-08T03:07:28.991Z,101076.88
2018-09-08T03:09:56.136Z,101085.63
2018-09-08T03:12:23.269Z,101080.33
2018-09-08T03:14:50.414Z,101081.77
2018-09-08T03:17:17.548Z,101077.05
2018-09-08T03:19:44.679Z,101069.34
2018-09-08T03:22:11.807Z,101076.20
2018-09-08T03:24:38.925Z,101078.17
2018-09-08T03:27:06.070Z,101083.81
2018-09-08T03:29:33.180Z,101083.98
2018-09-08T03:32:00.287Z,101081.97
2018-09-08T03:34:27.431Z,101084.72
2018-09-08T03:36:54.557Z,101087.13
2018-09-08T03:39:21.702Z,101086.73
2018-09-08T03:41:48.849Z,101092.95
2018-09-08T03:44:16.026Z,101086.94
2018-09-08T03:46:43.180Z,101090.78
2018-09-08T03:49:10.297Z,101100.66
2018-09-08T03:51:37.521Z,101106.80
2018-09-08T03:54:04.643Z,101108.42
2018-09-08T03:56:31.760Z,101106.07
2018-09-08T03:58:58.974Z,101110.64
2018-09-08T04:01:26.062Z,101117.63
2018-09-08T04:03:54.573Z,101115.25
2018-09-08T04:06:22.713Z,101118.02
2018-09-08T04:08:50.869Z,101111.63
2018-09-08T04:11:19.052Z,101106.77
2018-09-08T04:13:47.149Z,101108.87
2018-09-08T04:16:15.443Z,101110.91
2018-09-08T04:18:43.601Z,101112.55
2018-09-08T04:21:11.780Z,101114.77
2018-09-08T04:23:39.962Z,101112.59
2018-09-08T04:26:08.130Z,101118.09
2018-09-08T04:28:36.289Z,101116.92
2018-09-08T04:31:04.982Z,101118.91
2018-09-08T04:33:33.593Z,101118.61
2018-09-08T04:36:02.388Z,101129.88
2018-09-08T04:38:30.602Z,101122.77
2018-09-08T04:40:58.793Z,101128.58
2018-09-08T04:43:26.888Z,101124.14
2018-09-08T04:45:55.137Z,101117.67
2018-09-08T04:48:23.252Z,101129.10
2018-09-08T04:50:51.396Z,101125.77
2018-09-08T04:53:19.559Z,101127.16
2018-09-08T04:55:47.716Z,101130.56
2018-09-08T04:58:15.846Z,101133.42
2018-09-08T05:00:43.991Z,101136.95
2018-09-08T05:03:12.131Z,101144.50
2018-09-08T05:05:40.265Z,101146.75
2018-09-08T05:08:08.424Z,101150.02
2018-09-08T05:10:36.577Z,101148.52
2018-09-08T05:13:04.726Z,101145.44
2018-09-08T05:15:32.858Z,101149.31
2018-09-08T05:18:01.011Z,101149.48
2018-09-08T05:20:29.141Z,101146.27
2018-09-08T05:22:57.317Z,101151.95
2018-09-08T05:25:25.489Z,101154.89
2018-09-08T05:27:53.647Z,101142.08
2018-09-08T05:30:21.789Z,101147.69
2018-09-08T05:32:49.904Z,101155.08
2018-09-08T05:35:18.081Z,101156.18
2018-09-08T05:37:46.265Z,101165.05
2018-09-08T05:40:14.405Z,101161.52
2018-09-08T05:42:42.545Z,101168.30
2018-09-08T05:45:10.768Z,101168.77
2018-09-08T05:47:38.895Z,101164.24
2018-09-08T05:50:07.054Z,101168.66
2018-09-08T05:52:35.221Z,101169.13
2018-09-08T05:55:03.360Z,101178.69
2018-09-08T05:57:31.544Z,101174.91
2018-09-08T05:59:59.702Z,101182.84
2018-09-08T06:02:27.836Z,101184.39
2018-09-08T06:04:55.967Z,101189.92
2018-09-08T06:07:24.121Z,101191.77
2018-09-08T06:09:52.273Z,101191.85
2018-09-08T06:12:21.324Z,101187.55
2018-09-08T06:14:49.458Z,101194.32
2018-09-08T06:17:17.635Z,101194.53
2018-09-08T06:19:45.802Z,101204.02
2018-09-08T06:22:13.934Z,101204.16
2018-09-08T06:24:42.059Z,101206.40
2018-09-08T06:27:10.216Z,101201.08
2018-09-08T06:29:38.369Z,101205.90
2018-09-08T06:32:06.549Z,101210.67
2018-09-08T06:34:34.700Z,101201.80
2018-09-08T06:37:02.837Z,101203.20
2018-09-08T06:39:30.985Z,101199.87
2018-09-08T06:41:59.146Z,101206.42
2018-09-08T06:44:27.313Z,101195.73
2018-09-08T06:46:55.459Z,101197.89
2018-09-08T06:49:23.697Z,101200.83
2018-09-08T06:51:52.104Z,101207.36
2018-09-08T06:54:20.261Z,101213.08
2018-09-08T06:56:48.445Z,101212.06
2018-09-08T06:59:16.605Z,101213.95
2018-09-08T07:01:44.745Z,101208.37
2018-09-08T07:04:12.893Z,101207.91
2018-09-08T07:06:41.033Z,101201.71
2018-09-08T07:09:15.888Z,101208.48
2018-09-08T07:11:44.065Z,101204.98
2018-09-08T07:14:12.238Z,101209.66
2018-09-08T07:16:40.410Z,101212.32
2018-09-08T07:19:08.570Z,101204.66
2018-09-08T07:21:36.738Z,101218.16
2018-09-08T07:24:04.919Z,101226.91
2018-09-08T07:26:33.109Z,101237.70
2018-09-08T07:29:01.269Z,101227.11
2018-09-08T07:31:29.561Z,101227.58
2018-09-08T07:33:57.743Z,101235.09
2018-09-08T07:36:25.895Z,101237.14
2018-09-08T07:38:54.047Z,101247.55
2018-09-08T07:41:22.165Z,101237.41
2018-09-08T07:43:50.317Z,101238.85
2018-09-08T07:46:18.454Z,101252.67
2018-09-08T07:48:46.589Z,101244.02
2018-09-08T07:51:14.724Z,101242.22
2018-09-08T07:53:42.967Z,101241.07
2018-09-08T07:56:11.028Z,101244.09
2018-09-08T07:58:39.204Z,101242.41
2018-09-08T08:01:07.321Z,101252.50
2018-09-08T08:03:36.340Z,101253.12
2018-09-08T08:06:04.493Z,101251.81
2018-09-08T08:08:32.651Z,101249.63
2018-09-08T08:11:00.803Z,101257.36
2018-09-08T08:13:28.935Z,101257.28
2018-09-08T08:15:57.090Z,101258.78
2018-09-08T08:18:25.259Z,101260.48
2018-09-08T08:20:53.373Z,101252.53
2018-09-08T08:23:21.587Z,101252.06
2018-09-08T08:25:49.618Z,101247.37
2018-09-08T08:28:17.738Z,101255.27
2018-09-08T08:30:45.893Z,101259.81
2018-09-08T08:33:15.622Z,101266.27
2018-09-08T08:35:44.080Z,101265.85
2018-09-08T08:38:12.235Z,101279.62
2018-09-08T08:40:40.448Z,101279.41
2018-09-08T08:43:08.654Z,101287.06
2018-09-08T08:45:36.808Z,101287.75
2018-09-08T08:48:04.974Z,101284.28
2018-09-08T08:50:44.591Z,101286.66
2018-09-08T08:53:24.121Z,101294.94
2018-09-08T08:55:52.281Z,101285.30
2018-09-08T08:58:20.438Z,101295.77
2018-09-08T09:00:48.572Z,101303.01
2018-09-08T09:03:16.727Z,101306.37
2018-09-08T09:05:44.914Z,101308.16
2018-09-08T09:08:13.094Z,101305.68
2018-09-08T09:10:41.627Z,101303.56
2018-09-08T09:13:09.837Z,101312.42
2018-09-08T09:15:37.988Z,101307.52
2018-09-08T09:18:06.141Z,101317.28
2018-09-08T09:20:45.749Z,101314.34
2018-09-08T09:23:25.180Z,101312.48
2018-09-08T09:25:53.365Z,101317.34
2018-09-08T09:28:21.499Z,101322.48
2018-09-08T09:30:49.617Z,101326.95
2018-09-08T09:33:17.744Z,101324.13
2018-09-08T09:35:45.898Z,101329.60
2018-09-08T09:38:14.024Z,101339.22
2018-09-08T09:40:42.202Z,101335.78
2018-09-08T09:43:10.379Z,101337.58
2018-09-08T09:45:38.517Z,101338.03
2018-09-08T09:48:06.628Z,101335.63
2018-09-08T09:50:34.771Z,101339.97
2018-09-08T09:53:02.956Z,101344.09
2018-09-08T09:55:31.058Z,101337.12
2018-09-08T09:57:59.179Z,101336.56
2018-09-08T10:00:32.569Z,101344.27
2018-09-08T10:03:06.738Z,101336.22
2018-09-08T10:05:35.924Z,101341.33
2018-09-08T10:08:04.178Z,101331.89
2018-09-08T10:10:32.358Z,101337.14
2018-09-08T10:13:00.530Z,101347.18
2018-09-08T10:15:28.714Z,101342.50
2018-09-08T10:17:56.832Z,101343.73
2018-09-08T10:20:24.994Z,101345.67
2018-09-08T10:22:53.231Z,101340.05
2018-09-08T10:25:21.380Z,101338.81
2018-09-08T10:27:49.836Z,101343.25
2018-09-08T10:30:18.364Z,101340.38
2018-09-08T10:32:47.161Z,101352.61
2018-09-08T10:35:15.453Z,101345.16
2018-09-08T10:37:43.600Z,101345.80
2018-09-08T10:40:12.716Z,101350.48
2018-09-08T10:42:40.868Z,101337.38
2018-09-08T10:45:09.397Z,101338.59
2018-09-08T10:47:37.620Z,101335.63
2018-09-08T10:50:06.031Z,101345.09
2018-09-08T10:52:39.413Z,101338.37
2018-09-08T10:55:07.553Z,101358.92
2018-09-08T10:57:35.717Z,101352.21
2018-09-08T11:00:04.376Z,101347.91
2018-09-08T11:02:33.036Z,101352.71
2018-09-08T11:05:01.536Z,101354.48
2018-09-08T11:07:29.772Z,101346.71
2018-09-08T11:09:57.947Z,101353.69
2018-09-08T11:12:26.076Z,101353.52
2018-09-08T11:14:54.195Z,101354.31
2018-09-08T11:17:22.309Z,101353.77
2018-09-08T11:19:50.487Z,101354.19
2018-09-08T11:22:18.641Z,101353.10
2018-09-08T11:24:46.770Z,101359.90
2018-09-08T11:27:15.081Z,101359.77
2018-09-08T11:29:43.358Z,101363.84
2018-09-08T11:32:11.515Z,101364.58
2018-09-08T11:34:39.669Z,101362.30
2018-09-08T11:37:07.794Z,101363.48
2018-09-08T11:39:36.026Z,101369.55
2018-09-08T11:42:04.261Z,101363.27
2018-09-08T11:44:32.424Z,101363.88
2018-09-08T11:47:00.621Z,101369.30
2018-09-08T11:49:28.841Z,101366.98
2018-09-08T11:51:56.981Z,101373.74
2018-09-08T11:54:25.186Z,101372.03
2018-09-08T11:56:53.368Z,101372.44
2018-09-08T11:59:21.500Z,101372.79
2018-09-08T12:01:49.677Z,101375.45
2018-09-08T12:04:17.849Z,101376.65
2018-09-08T12:06:46.001Z,101373.88
2018-09-08T12:09:14.184Z,101381.11
2018-09-08T12:11:42.365Z,101377.98
2018-09-08T12:14:10.958Z,101375.41
2018-09-08T12:16:39.176Z,101386.05
2018-09-08T12:19:07.405Z,101390.17
2018-09-08T12:21:35.568Z,101382.55
2018-09-08T12:24:03.704Z,101383.03
2018-09-08T12:26:31.850Z,101394.48
2018-09-08T12:29:00.029Z,101383.77
2018-09-08T12:31:28.189Z,101388.79
2018-09-08T12:33:56.640Z,101390.39
2018-09-08T12:36:24.788Z,101388.72
2018-09-08T12:38:53.020Z,101390.65
2018-09-08T12:41:21.177Z,101392.57
2018-09-08T12:43:49.430Z,101395.45
2018-09-08T12:46:17.619Z,101391.00
2018-09-08T12:48:45.758Z,101394.00
2018-09-08T12:51:13.900Z,101395.69
2018-09-08T12:53:42.042Z,101392.20
2018-09-08T12:56:10.256Z,101397.02
2018-09-08T12:58:38.405Z,101403.30
2018-09-08T13:01:06.591Z,101405.47
2018-09-08T13:03:34.957Z,101401.20
2018-09-08T13:06:04.111Z,101398.59
2018-09-08T13:08:32.252Z,101395.59
2018-09-08T13:11:00.416Z,101396.55
2018-09-08T13:13:28.565Z,101400.03
2018-09-08T13:15:56.717Z,101402.83
2018-09-08T13:18:24.890Z,101403.53
2018-09-08T13:20:53.040Z,101397.86
2018-09-08T13:23:21.514Z,101397.57
2018-09-08T13:25:49.701Z,101401.50
2018-09-08T13:28:18.290Z,101406.02
2018-09-08T13:30:46.577Z,101399.50
2018-09-08T13:33:14.694Z,101403.61
2018-09-08T13:35:42.818Z,101396.17
2018-09-08T13:38:10.975Z,101396.89
2018-09-08T13:40:39.118Z,101407.88
2018-09-08T13:43:07.256Z,101394.61
2018-09-08T13:45:35.392Z,101397.53
2018-09-08T13:48:03.602Z,101393.97
2018-09-08T13:50:31.757Z,101404.25
2018-09-08T13:52:59.917Z,101401.97
2018-09-08T13:55:28.080Z,101401.25
2018-09-08T13:57:56.214Z,101403.02
2018-09-08T14:00:24.357Z,101408.68
2018-09-08T14:02:52.533Z,101404.13
2018-09-08T14:05:20.711Z,101403.77
2018-09-08T14:07:53.668Z,101398.95
2018-09-08T14:10:21.812Z,101397.58
2018-09-08T14:12:49.976Z,101395.64
2018-09-08T14:15:18.162Z,101392.14
2018-09-08T14:17:46.328Z,101392.64
2018-09-08T14:20:14.497Z,101388.61
2018-09-08T14:22:42.659Z,101386.18
2018-09-08T14:25:10.777Z,101385.58
2018-09-08T14:27:38.912Z,101390.63
2018-09-08T14:30:07.286Z,101382.95
2018-09-08T14:32:35.414Z,101380.98
2018-09-08T14:35:03.618Z,101378.31
2018-09-08T14:37:31.773Z,101374.81
2018-09-08T14:39:59.908Z,101384.35
2018-09-08T14:42:28.046Z,101389.05
2018-09-08T14:44:56.237Z,101399.87
2018-09-08T14:47:24.447Z,101396.43
2018-09-08T14:49:52.556Z,101399.94
2018-09-08T14:52:20.726Z,101402.69
2018-09-08T14:54:48.890Z,101402.80
2018-09-08T14:57:17.068Z,101400.39
2018-09-08T14:59:45.194Z,101404.01
2018-09-08T15:02:13.342Z,101406.75
2018-09-08T15:04:41.541Z,101408.27
2018-09-08T15:07:09.745Z,101405.38
2018-09-08T15:09:37.899Z,101402.13
2018-09-08T15:12:06.131Z,101404.81
2018-09-08T15:14:34.349Z,101402.29
2018-09-08T15:17:02.488Z,101405.06
2018-09-08T15:19:30.689Z,101408.76
2018-09-08T15:21:58.806Z,101406.24
2018-09-08T15:24:27.075Z,101407.09
2018-09-08T15:26:55.269Z,101411.75
2018-09-08T15:29:23.405Z,101416.45
2018-09-08T15:31:51.572Z,101413.00
2018-09-08T15:34:19.783Z,101419.25
2018-09-08T15:36:47.929Z,101421.34
2018-09-08T15:39:16.055Z,101414.24
2018-09-08T15:41:44.241Z,101421.73
2018-09-08T15:44:12.477Z,101418.72
2018-09-08T15:46:40.869Z,101412.92
2018-09-08T15:49:09.078Z,101411.61
2018-09-08T15:51:37.435Z,101415.23
2018-09-08T15:54:05.519Z,101415.47
2018-09-08T15:56:33.675Z,101418.23
2018-09-08T15:59:01.805Z,101419.66
2018-09-08T16:01:30.009Z,101410.14
2018-09-08T16:03:58.175Z,101409.91
2018-09-08T16:06:26.327Z,101413.29
2018-09-08T16:08:54.464Z,101414.44
2018-09-08T16:11:22.681Z,101410.33
2018-09-08T16:13:50.770Z,101412.40
2018-09-08T16:16:18.977Z,101412.27
2018-09-08T16:18:47.173Z,101411.05
2018-09-08T16:21:15.273Z,101413.72
2018-09-08T16:23:43.380Z,101421.28
2018-09-08T16:26:11.534Z,101416.65
2018-09-08T16:28:39.742Z,101419.55
2018-09-08T16:31:07.844Z,101428.53
2018-09-08T16:33:36.006Z,101428.28
2018-09-08T16:36:04.152Z,101423.97
2018-09-08T16:38:32.316Z,101432.14
2018-09-08T16:41:01.308Z,101431.59
2018-09-08T16:43:29.471Z,101430.27
2018-09-08T16:45:57.644Z,101429.20
2018-09-08T16:48:25.804Z,101431.27
2018-09-08T16:50:53.928Z,101433.55
2018-09-08T16:53:22.074Z,101436.41
2018-09-08T16:55:50.233Z,101434.58
2018-09-08T16:58:18.357Z,101438.69
2018-09-08T17:00:46.464Z,101439.28
2018-09-08T17:03:14.645Z,101440.50
2018-09-08T17:05:42.766Z,101437.11
2018-09-08T17:08:15.081Z,101438.06
2018-09-08T17:10:43.398Z,101437.19
2018-09-08T17:13:11.753Z,101444.91
2018-09-08T17:15:39.937Z,101440.78
2018-09-08T17:18:08.186Z,101445.80
2018-09-08T17:20:37.321Z,101446.13
2018-09-08T17:23:05.573Z,101446.70
2018-09-08T17:25:33.842Z,101450.73
2018-09-08T17:28:01.979Z,101450.66
2018-09-08T17:30:30.173Z,101447.49
2018-09-08T17:32:58.358Z,101450.45
2018-09-08T17:35:26.509Z,101456.19
2018-09-08T17:37:54.655Z,101449.16
2018-09-08T17:40:22.800Z,101453.02
2018-09-08T17:42:51.051Z,101451.00
2018-09-08T17:45:19.963Z,101452.43
2018-09-08T17:47:48.132Z,101454.82
2018-09-08T17:50:16.263Z,101457.41
2018-09-08T17:52:44.426Z,101454.46
2018-09-08T17:55:12.621Z,101464.34
2018-09-08T17:57:40.875Z,101460.69
2018-09-08T18:00:08.953Z,101461.41
2018-09-08T18:02:37.090Z,101469.07
2018-09-08T18:05:05.222Z,101473.64
2018-09-08T18:07:33.360Z,101472.77
2018-09-08T18:10:01.514Z,101475.23
2018-09-08T18:12:29.657Z,101467.32
2018-09-08T18:14:57.813Z,101471.53
2018-09-08T18:17:25.979Z,101471.28
2018-09-08T18:19:54.108Z,101475.88
2018-09-08T18:22:22.244Z,101480.38
2018-09-08T18:24:50.389Z,101484.45
2018-09-08T18:27:18.487Z,101488.22
2018-09-08T18:29:46.641Z,101485.70
2018-09-08T18:32:14.772Z,101491.53
2018-09-08T18:34:42.929Z,101495.21
2018-09-08T18:37:17.775Z,101490.61
2018-09-08T18:39:45.934Z,101490.48
2018-09-08T18:42:14.076Z,101492.89
2018-09-08T18:44:42.263Z,101489.88
2018-09-08T18:47:10.437Z,101491.87
2018-09-08T18:49:38.658Z,101492.29
2018-09-08T18:52:07.590Z,101495.88
2018-09-08T18:54:35.737Z,101495.69
2018-09-08T18:57:03.914Z,101501.14
2018-09-08T18:59:32.068Z,101497.57
2018-09-08T19:02:00.241Z,101502.09
2018-09-08T19:04:28.416Z,101503.41
2018-09-08T19:06:56.563Z,101499.55
2018-09-08T19:09:24.666Z,101500.90
2018-09-08T19:11:52.819Z,101497.57
2018-09-08T19:14:26.330Z,101493.90
2018-09-08T19:16:54.468Z,101497.19
2018-09-08T19:19:22.613Z,101496.06
2018-09-08T19:21:50.785Z,101498.31
2018-09-08T19:24:24.448Z,101495.34
2018-09-08T19:26:52.633Z,101499.01
2018-09-08T19:29:26.107Z,101494.36
2018-09-08T19:31:54.253Z,101496.38
2018-09-08T19:34:22.397Z,101493.64
2018-09-08T19:36:50.549Z,101495.70
2018-09-08T19:39:18.714Z,101496.55
2018-09-08T19:41:46.877Z,101495.42
2018-09-08T19:44:15.036Z,101497.59
2018-09-08T19:46:48.709Z,101498.16
2018-09-08T19:49:16.825Z,101494.11
2018-09-08T19:51:45.961Z,101495.52
2018-09-08T19:54:14.088Z,101497.69
2018-09-08T19:56:47.693Z,101500.51
2018-09-08T19:59:15.816Z,101502.02
2018-09-08T20:01:43.984Z,101498.63
2018-09-08T20:04:12.155Z,101498.44
2018-09-08T20:06:40.309Z,101503.81
2018-09-08T20:09:08.466Z,101503.90
2018-09-08T20:11:37.921Z,101503.34
2018-09-08T20:14:06.228Z,101504.75
2018-09-08T20:16:34.397Z,101503.43
2018-09-08T20:19:02.525Z,101502.11
2018-09-08T20:21:30.643Z,101497.19
2018-09-08T20:23:58.741Z,101499.01
2018-09-08T20:26:26.925Z,101496.84
2018-09-08T20:28:55.110Z,101494.74
2018-09-08T20:31:23.201Z,101497.31
2018-09-08T20:33:51.375Z,101495.52
2018-09-08T20:36:19.556Z,101494.11
2018-09-08T20:38:47.705Z,101494.67
2018-09-08T20:41:15.850Z,101500.60
2018-09-08T20:43:44.034Z,101497.02
2018-09-08T20:46:12.129Z,101494.48
2018-09-08T20:48:40.261Z,101497.20
2018-09-08T20:51:08.356Z,101498.14
2018-09-08T20:53:36.504Z,101495.63
2018-09-08T20:56:04.626Z,101498.16
2018-09-08T20:58:32.867Z,101493.66
2018-09-08T21:01:01.060Z,101495.98
2018-09-08T21:03:29.225Z,101495.25
2018-09-08T21:05:57.374Z,101490.91
2018-09-08T21:08:25.525Z,101490.06
2018-09-08T21:10:53.678Z,101495.71
2018-09-08T21:13:21.837Z,101497.59
2018-09-08T21:15:49.973Z,101488.83
2018-09-08T21:18:18.092Z,101488.10
2018-09-08T21:20:46.240Z,101489.98
2018-09-08T21:23:14.422Z,101487.41
2018-09-08T21:25:42.569Z,101489.88
2018-09-08T21:28:10.716Z,101486.38
2018-09-08T21:30:38.843Z,101487.05
2018-09-08T21:33:07.017Z,101483.66
2018-09-08T21:35:35.161Z,101490.63
2018-09-08T21:38:03.308Z,101490.16
2018-09-08T21:40:31.453Z,101490.14
2018-09-08T21:42:59.613Z,101492.48
2018-09-08T21:45:27.788Z,101487.31
2018-09-08T21:47:56.022Z,101494.94
2018-09-08T21:50:24.157Z,101492.66
2018-09-08T21:52:52.298Z,101491.18
2018-09-08T21:55:20.461Z,101492.30
2018-09-08T21:57:48.629Z,101490.22
2018-09-08T22:00:16.765Z,101493.44
2018-09-08T22:02:44.927Z,101485.42
2018-09-08T22:05:13.086Z,101487.38
2018-09-08T22:07:41.657Z,101485.13
2018-09-08T22:10:10.001Z,101483.23
2018-09-08T22:12:38.097Z,101488.63
2018-09-08T22:15:06.264Z,101494.72
2018-09-08T22:17:34.393Z,101486.36
2018-09-08T22:20:02.548Z,101491.52
2018-09-08T22:22:30.683Z,101491.60
2018-09-08T22:24:58.821Z,101493.59
2018-09-08T22:27:26.992Z,101494.52
2018-09-08T22:29:55.150Z,101491.53
2018-09-08T22:32:23.309Z,101494.44
2018-09-08T22:34:51.479Z,101493.97
2018-09-08T22:37:20.116Z,101499.33
2018-09-08T22:39:48.371Z,101499.97
2018-09-08T22:42:16.513Z,101501.55
2018-09-08T22:44:44.725Z,101496.66
2018-09-08T22:47:12.861Z,101503.80
2018-09-08T22:49:41.078Z,101501.43
2018-09-08T22:52:09.203Z,101497.56
2018-09-08T22:54:37.361Z,101505.11
2018-09-08T22:57:05.608Z,101498.16
2018-09-08T22:59:33.762Z,101507.75
2018-09-08T23:02:01.913Z,101507.36
2018-09-08T23:04:30.069Z,101508.39
2018-09-08T23:06:58.249Z,101502.27
2018-09-08T23:09:26.384Z,101504.94
2018-09-08T23:11:54.505Z,101506.46
2018-09-08T23:14:22.653Z,101500.98
2018-09-08T23:16:50.761Z,101508.33
2018-09-08T23:19:18.884Z,101504.77
2018-09-08T23:21:47.027Z,101502.77
2018-09-08T23:24:15.203Z,101503.42
2018-09-08T23:26:43.314Z,101507.28
2018-09-08T23:29:11.437Z,101509.09
2018-09-08T23:31:39.596Z,101511.17
2018-09-08T23:34:07.760Z,101513.77
2018-09-08T23:36:35.888Z,101518.97
2018-09-08T23:39:05.050Z,101517.66
2018-09-08T23:41:33.201Z,101518.59
2018-09-08T23:44:01.445Z,101523.31
2018-09-08T23:46:30.108Z,101519.83
2018-09-08T23:48:58.271Z,101510.70
2018-09-08T23:51:26.407Z,101515.20
2018-09-08T23:53:55.222Z,101516.23
2018-09-08T23:56:23.404Z,101506.43
2018-09-08T23:58:51.548Z,101507.02
